Terminal Aerodrome Forecast
Issued by NWS Cleveland, OH

Home | Current Version | Previous Version | Graphics & Text | Print | Product List | Glossary On
Versions: 1 2 3 4 5 6 7 8 9 10 11 12 13 14 15 16 17 18 19 20 21 22 23
000
FTUS41 KCLE 261700 RRA
TAFMFD
TAF
KMFD 261741Z 2618/2718 22008KT P6SM SCT035
     FM270000 24006KT P6SM SCT035 BKN200
      TEMPO 2701/2705 3SM -TSRA BR OVC035CB
     FM270500 26006KT P6SM BKN120 OVC250
     FM270900 32006KT P6SM SCT012 BKN250
     FM271300 35006KT P6SM BKN012=

USA.gov is the U.S. government's official web portal to all federal, state and local government web resources and services.